createdAt,value
2023-01-29T00:04:32.654Z,101051.20
2023-01-29T00:09:36.270Z,101043.40
2023-01-29T00:14:41.812Z,101041.80
2023-01-29T00:19:45.013Z,101033.40
2023-01-29T00:24:48.122Z,101028.60
2023-01-29T00:30:09.451Z,101024.20
2023-01-29T00:35:12.680Z,101032.00
2023-01-29T00:40:16.793Z,101032.80
2023-01-29T00:45:20.233Z,101027.60
2023-01-29T00:50:23.416Z,101023.80
2023-01-29T00:55:26.725Z,101024.80
2023-01-29T01:00:29.879Z,101028.60
2023-01-29T01:05:33.249Z,101033.40
2023-01-29T01:10:36.352Z,101032.40
2023-01-29T01:15:41.012Z,101018.60
2023-01-29T01:20:44.124Z,101019.00
2023-01-29T01:25:47.312Z,101012.40
2023-01-29T01:30:50.499Z,101006.00
2023-01-29T01:35:53.734Z,101003.00
2023-01-29T01:40:56.837Z,101015.00
2023-01-29T01:46:00.153Z,101019.60
2023-01-29T01:51:06.734Z,101019.80
2023-01-29T01:56:15.876Z,101008.20
2023-01-29T02:01:27.109Z,101018.40
2023-01-29T02:06:51.275Z,101007.40
2023-01-29T02:11:54.380Z,100994.20
2023-01-29T02:17:00.329Z,100998.20
2023-01-29T02:22:38.711Z,100984.40
2023-01-29T02:28:25.210Z,100966.60
2023-01-29T02:33:41.331Z,100962.00
2023-01-29T02:39:15.357Z,100953.40
2023-01-29T02:45:16.525Z,100942.40
2023-01-29T02:50:42.767Z,100949.40
2023-01-29T02:56:15.780Z,100949.80
2023-01-29T03:01:38.336Z,100946.80
2023-01-29T03:06:51.392Z,100942.20
2023-01-29T03:12:19.991Z,100924.00
2023-01-29T03:17:33.536Z,100936.60
2023-01-29T03:22:39.932Z,100928.40
2023-01-29T03:28:23.580Z,100921.60
2023-01-29T03:33:32.843Z,100922.60
2023-01-29T03:38:36.457Z,100923.40
2023-01-29T03:43:55.423Z,100915.40
2023-01-29T03:49:01.609Z,100906.20
2023-01-29T03:54:29.490Z,100904.60
2023-01-29T04:00:26.657Z,100907.20
2023-01-29T04:05:44.112Z,100908.00
2023-01-29T04:10:52.236Z,100895.20
2023-01-29T04:16:02.074Z,100875.20
2023-01-29T04:21:07.507Z,100862.00
2023-01-29T04:26:28.594Z,100865.80
2023-01-29T04:31:45.322Z,100863.60
2023-01-29T04:37:16.984Z,100850.40
2023-01-29T04:42:31.373Z,100845.60
2023-01-29T04:48:17.567Z,100838.20
2023-01-29T04:53:59.400Z,100836.80
2023-01-29T04:59:09.516Z,100846.40
2023-01-29T05:04:18.561Z,100839.40
2023-01-29T05:09:22.935Z,100828.80
2023-01-29T05:14:30.624Z,100836.00
2023-01-29T05:19:33.883Z,100836.60
2023-01-29T05:24:37.893Z,100833.40
2023-01-29T05:29:46.962Z,100821.20
2023-01-29T05:34:50.054Z,100820.60
2023-01-29T05:39:53.146Z,100826.00
2023-01-29T05:44:56.283Z,100834.00
2023-01-29T05:49:59.561Z,100835.00
2023-01-29T05:55:02.701Z,100824.40
2023-01-29T06:00:07.601Z,100807.60
2023-01-29T06:05:10.924Z,100813.80
2023-01-29T06:10:18.060Z,100805.20
2023-01-29T06:15:21.646Z,100796.80
2023-01-29T06:20:25.670Z,100809.20
2023-01-29T06:25:28.883Z,100802.80
2023-01-29T06:30:32.057Z,100806.60
2023-01-29T06:35:35.297Z,100811.40
2023-01-29T06:40:39.433Z,100813.00
2023-01-29T06:45:52.150Z,100805.80
2023-01-29T06:50:55.571Z,100808.60
2023-01-29T06:55:58.787Z,100805.20
2023-01-29T07:01:15.505Z,100799.00
2023-01-29T07:06:30.098Z,100800.40
2023-01-29T07:11:37.905Z,100796.40
2023-01-29T07:16:41.135Z,100794.80
2023-01-29T07:21:44.420Z,100797.80
2023-01-29T07:26:47.833Z,100805.20
2023-01-29T07:31:51.043Z,100810.40
2023-01-29T07:36:54.766Z,100799.60
2023-01-29T07:41:58.585Z,100789.20
2023-01-29T07:47:01.698Z,100777.40
2023-01-29T07:52:05.205Z,100762.60
2023-01-29T07:57:08.517Z,100763.40
2023-01-29T08:02:12.782Z,100762.40
2023-01-29T08:07:16.011Z,100755.80
2023-01-29T08:12:19.166Z,100748.00
2023-01-29T08:17:22.598Z,100756.20
2023-01-29T08:22:25.797Z,100748.80
2023-01-29T08:27:29.025Z,100749.80
2023-01-29T08:32:32.531Z,100735.20
2023-01-29T08:37:35.835Z,100732.60
2023-01-29T08:42:39.136Z,100725.60
2023-01-29T08:47:47.734Z,100718.20
2023-01-29T08:52:50.801Z,100711.00
2023-01-29T08:57:54.813Z,100709.00
2023-01-29T09:02:59.871Z,100711.60
2023-01-29T09:08:03.691Z,100704.80
2023-01-29T09:13:06.903Z,100709.60
2023-01-29T09:18:10.043Z,100723.20
2023-01-29T09:23:13.416Z,100725.40
2023-01-29T09:28:18.017Z,100729.40
2023-01-29T09:33:21.888Z,100715.80
2023-01-29T09:38:24.987Z,100715.00
2023-01-29T09:44:01.687Z,100700.20
2023-01-29T09:49:27.182Z,100707.40
2023-01-29T09:54:43.007Z,100708.20
2023-01-29T09:59:46.127Z,100703.80
2023-01-29T10:04:58.333Z,100699.20
2023-01-29T10:10:45.290Z,100691.40
2023-01-29T10:16:23.507Z,100667.20
2023-01-29T10:21:38.910Z,100669.60
2023-01-29T10:26:42.175Z,100665.40
2023-01-29T10:31:52.402Z,100664.00
2023-01-29T10:36:57.367Z,100646.60
2023-01-29T10:42:49.272Z,100636.60
2023-01-29T10:48:23.824Z,100626.40
2023-01-29T10:54:44.341Z,100620.20
2023-01-29T11:00:07.623Z,100617.00
2023-01-29T11:05:36.633Z,100605.80
2023-01-29T11:10:49.576Z,100602.60
2023-01-29T11:15:54.035Z,100607.80
2023-01-29T11:21:04.782Z,100588.20
2023-01-29T11:26:14.308Z,100581.40
2023-01-29T11:31:29.223Z,100572.00
2023-01-29T11:36:35.334Z,100571.40
2023-01-29T11:42:04.211Z,100556.00
2023-01-29T11:47:16.254Z,100560.20
2023-01-29T11:52:25.149Z,100553.60
2023-01-29T11:57:39.169Z,100548.80
2023-01-29T12:03:06.820Z,100543.80
2023-01-29T12:08:19.155Z,100537.20
2023-01-29T12:13:28.688Z,100527.80
2023-01-29T12:18:59.359Z,100520.40
2023-01-29T12:24:27.960Z,100515.00
2023-01-29T12:30:19.951Z,100510.20
2023-01-29T12:35:32.231Z,100504.60
2023-01-29T12:40:47.259Z,100509.40
2023-01-29T12:45:55.656Z,100511.80
2023-01-29T12:51:09.818Z,100507.60
2023-01-29T12:56:27.060Z,100528.00
2023-01-29T13:01:39.475Z,100546.60
2023-01-29T13:06:51.598Z,100529.80
2023-01-29T13:12:04.106Z,100518.40
2023-01-29T13:17:24.333Z,100500.00
2023-01-29T13:22:35.354Z,100492.40
2023-01-29T13:27:39.704Z,100484.40
2023-01-29T13:32:50.750Z,100472.60
2023-01-29T13:37:55.703Z,100474.00
2023-01-29T13:43:00.427Z,100470.60
2023-01-29T13:48:38.260Z,100469.20
2023-01-29T13:53:43.420Z,100465.00
2023-01-29T13:58:46.429Z,100457.80
2023-01-29T14:04:08.098Z,100451.80
2023-01-29T14:09:53.885Z,100450.00
2023-01-29T14:14:57.021Z,100456.00
2023-01-29T14:20:20.028Z,100455.00
2023-01-29T14:25:32.104Z,100442.20
2023-01-29T14:30:36.621Z,100444.40
2023-01-29T14:35:50.574Z,100443.20
2023-01-29T14:41:25.411Z,100439.80
2023-01-29T14:46:34.466Z,100433.80
2023-01-29T14:51:44.187Z,100431.00
2023-01-29T14:57:00.148Z,100437.20
2023-01-29T15:02:40.247Z,100452.20
2023-01-29T15:07:55.293Z,100443.20
2023-01-29T15:13:36.117Z,100446.40
2023-01-29T15:18:44.195Z,100447.40
2023-01-29T15:23:49.372Z,100446.40
2023-01-29T15:29:04.152Z,100443.20
2023-01-29T15:34:08.285Z,100425.00
2023-01-29T15:39:25.059Z,100412.60
2023-01-29T15:44:28.306Z,100402.60
2023-01-29T15:49:36.497Z,100404.20
2023-01-29T15:54:39.947Z,100395.60
2023-01-29T15:59:45.927Z,100403.60
2023-01-29T16:04:49.259Z,100404.20
2023-01-29T16:09:54.113Z,100403.00
2023-01-29T16:14:58.007Z,100395.20
2023-01-29T16:20:08.387Z,100385.60
2023-01-29T16:25:16.104Z,100374.40
2023-01-29T16:30:20.218Z,100361.60
2023-01-29T16:35:23.361Z,100346.60
2023-01-29T16:40:33.394Z,100338.40
2023-01-29T16:45:36.622Z,100326.20
2023-01-29T16:50:53.985Z,100333.00
2023-01-29T16:56:05.956Z,100318.60
2023-01-29T17:01:11.660Z,100320.80
2023-01-29T17:06:26.343Z,100323.60
2023-01-29T17:11:41.815Z,100331.80
2023-01-29T17:17:34.574Z,100333.00
2023-01-29T17:22:37.785Z,100335.80
2023-01-29T17:27:44.081Z,100330.00
2023-01-29T17:32:47.667Z,100337.20
2023-01-29T17:37:51.099Z,100333.60
2023-01-29T17:42:54.099Z,100338.40
2023-01-29T17:47:57.312Z,100320.60
2023-01-29T17:53:00.407Z,100309.60
2023-01-29T17:58:03.729Z,100301.80
2023-01-29T18:03:06.935Z,100280.60
2023-01-29T18:08:19.288Z,100283.60
2023-01-29T18:13:22.572Z,100276.00
2023-01-29T18:18:25.708Z,100266.80
2023-01-29T18:23:31.746Z,100257.80
2023-01-29T18:28:35.154Z,100250.80
2023-01-29T18:33:38.268Z,100243.60
2023-01-29T18:38:41.504Z,100232.40
2023-01-29T18:43:44.790Z,100222.60
2023-01-29T18:48:48.117Z,100217.20
2023-01-29T18:53:53.259Z,100203.60
2023-01-29T18:58:56.690Z,100200.20
2023-01-29T19:04:00.609Z,100182.80
2023-01-29T19:09:04.622Z,100168.00
2023-01-29T19:14:07.720Z,100149.60
2023-01-29T19:19:11.548Z,100157.80
2023-01-29T19:24:15.589Z,100147.00
2023-01-29T19:29:20.347Z,100148.40
2023-01-29T19:34:24.154Z,100145.80
2023-01-29T19:39:32.678Z,100131.20
2023-01-29T19:44:35.889Z,100124.00
2023-01-29T19:49:40.866Z,100118.20
2023-01-29T19:54:46.573Z,100110.60
2023-01-29T19:59:49.812Z,100110.40
2023-01-29T20:04:53.222Z,100105.00
2023-01-29T20:09:56.533Z,100096.80
2023-01-29T20:14:59.740Z,100078.60
2023-01-29T20:20:05.917Z,100074.80
2023-01-29T20:25:09.966Z,100078.20
2023-01-29T20:30:14.043Z,100076.00
2023-01-29T20:35:17.418Z,100073.00
2023-01-29T20:40:20.605Z,100050.80
2023-01-29T20:45:23.909Z,100038.00
2023-01-29T20:50:27.428Z,100027.20
2023-01-29T20:55:31.976Z,100013.60
2023-01-29T21:00:35.645Z,100005.00
2023-01-29T21:05:39.011Z,99993.80
2023-01-29T21:10:43.354Z,99979.60
2023-01-29T21:15:47.157Z,99971.40
2023-01-29T21:20:50.880Z,99974.60
2023-01-29T21:25:54.129Z,99949.20
2023-01-29T21:31:10.289Z,99950.20
2023-01-29T21:36:13.522Z,99940.40
2023-01-29T21:41:16.795Z,99941.40
2023-01-29T21:46:20.053Z,99931.60
2023-01-29T21:51:24.055Z,99923.60
2023-01-29T21:56:27.284Z,99915.80
2023-01-29T22:01:37.996Z,99901.00
2023-01-29T22:06:42.790Z,99897.40
2023-01-29T22:11:45.798Z,99890.40
2023-01-29T22:16:49.056Z,99877.80
2023-01-29T22:21:55.922Z,99873.80
2023-01-29T22:26:59.002Z,99873.00
2023-01-29T22:32:02.177Z,99856.00
2023-01-29T22:37:05.625Z,99843.60
2023-01-29T22:42:08.756Z,99835.00
2023-01-29T22:47:12.560Z,99827.40
2023-01-29T22:52:16.072Z,99818.00
2023-01-29T22:57:20.105Z,99811.20
2023-01-29T23:02:23.134Z,99792.20
2023-01-29T23:07:26.722Z,99782.60
2023-01-29T23:12:29.861Z,99776.40
2023-01-29T23:17:33.750Z,99767.80
2023-01-29T23:22:36.856Z,99745.20
2023-01-29T23:27:40.275Z,99734.40
2023-01-29T23:32:43.320Z,99716.40
2023-01-29T23:37:46.490Z,99705.20
2023-01-29T23:42:49.698Z,99695.00
2023-01-29T23:47:52.717Z,99685.20
2023-01-29T23:52:55.804Z,99669.20
2023-01-29T23:57:59.011Z,99660.40
